Terminal Aerodrome Forecast
Issued by NWS Caribou, ME

Home | Current Version | Previous Version | Text Only | Print | Product List | Glossary On
Versions: 1 2 3 4 5 6 7 8 9 10 11 12 13 14 15 16 17
000
FTUS41 KCAR 111253 AAA
TAFCAR
TAF AMD
KCAR 111253Z 1113/1212 02008KT 2SM -SN BR SCT015 OVC025
      TEMPO 1113/1115 1SM -SN BR OVC015
     FM111500 35006KT P6SM BKN035
     FM111900 35006KT P6SM SCT250=

USA.gov is the U.S. government's official web portal to all federal, state and local government web resources and services.